Rapid City, SD

2:08 AM MST on February 22, 2017 (GMT -0700)
MD4997 | | Change Station
Active Advisory: Winter Storm Watch

Elev 3263 ft 44.08 °N, 103.21 °W | Updated 2 minutes ago

Mostly Cloudy
Mostly Cloudy
45.0 °F
Feels Like 45 °F
N
1.0
Wind Variable Wind from SSW
Gusts 4.0 mph

Today
High -- | Low -- °F
--% Chance of Precip.
Yesterday
High -- | Low -- °F
Precip. -- in
Pressure 29.66 in
Visibility 10.0 miles
Clouds Clear
Windchill 45 °F
Dew Point 37 °F
Humidity 74%
Rainfall 0.06 in
Snow Depth Not available.
6:40 AM 5:32 PM
Waning Crescent, 18% visible
METAR KRAP 220852Z AUTO 25007KT 10SM CLR 06/02 A2968 RMK AO2 SLP042 60001 T00610022 58015
Pressure 29.66 in
Visibility 10.0 miles
Clouds Clear
Windchill 45 °F
Dew Point 37 °F
Humidity 74%
Rainfall 0.06 in
Snow Depth Not available.
6:40 AM 5:32 PM
Waning Crescent, 18% visible
METAR KRAP 220852Z AUTO 25007KT 10SM CLR 06/02 A2968 RMK AO2 SLP042 60001 T00610022 58015

Get Your Daily Forecast Email!

Thanks for signing up!

Be on the lookout for a verification email in your inbox.

You'll start receiving the daily forecast at 8 AM.

×

10-Day Weather Forecast

Almanac

Astronomy

Feb. 22, 2017 Rise Set
Actual Time
Civil Twilight
Nautical Twilight
Astronomical Twilight
Moon
Length of Visible Light
Length of Day
Tomorrow will be .
, % of the Moon is Illuminated

Today's Extremes

State Highs State Lows

Community

WunderPhotos

Upload Photos

1,962,540 photos uploaded!

WunderBlog® & News

Nearby

Air Quality

  Air Quality AQ Index Pollutant
Not available.

Snow Depth

Station Depth Elevation

Earthquake Activity

City Distance Mag. Time & Date
Minimum magnitude displayed is 2.5.

Coastal Water Temperatures

Place Temperature

Stations

Nearby Weather Stations

Station Location Temp. Windchill Dew Point Humidity Wind Precip. Elev Updated Type
                   

Watches & Warnings

Winter Storm Watch
Issued: 3:46 PM CST Feb. 21, 2017 – National Weather Service

... Winter Storm Watch in effect from Thursday morning through
Friday morning...

The National Weather Service in Rapid City has issued a Winter
Storm Watch, which is in effect from Thursday morning through
Friday morning.

* Timing... snow will begin Thursday morning and continue into
Thursday night. Snow will end late Thursday night into Friday
morning.

* Main impact... snow amounts of 6 inches or more are possible.

* Other impacts... slippery and hazardous Road conditions will be
possible. Travel may be difficult at times.


Precautionary/preparedness actions...

A Winter Storm Watch means heavy snow... strong winds... freezing
precipitation... and cold temperatures are possible. Monitor NOAA
Weather Radio... local radio or television... or the internet for
updates on this potentially dangerous storm. Take time to prepare
for severe winter conditions before the storm develops.